White Plains, Kentucky
Current Conditions -  °F | °C
As of 3:35 AM on Saturday 20 Dec 2014 (Local Time) from K2I0 Reporting Station
Overcast Overcast  
Wind Chill:   Ceiling: 5500
Heat Index:   Visibility: 10mi
Dew Point: -3°   Wind: 3mph
Humidity: 81%   Direction: 40°NE
Pressure: 30.27"   Gusts: NA
Location:  37.18°N, 87.38°W
Report Text: K2I0 200935Z AUTO 04003KT 10SM OVC055 01/M02 A3027 RMK AO2 T00051025
Loading
Personal Weather Stations






























Interactive Weather Map New forecast layout! Learn more

10-Day Weather Forecast

Advertisements
Track Severe Weather on mobile